createdAt,value
2022-11-26T00:01:19.542Z,0.87
2022-11-26T00:03:47.299Z,0.88
2022-11-26T00:06:34.064Z,0.93
2022-11-26T00:09:01.998Z,0.97
2022-11-26T00:11:29.390Z,0.99
2022-11-26T00:13:56.413Z,0.99
2022-11-26T00:16:23.811Z,1.02
2022-11-26T00:18:50.907Z,0.98
2022-11-26T00:21:22.489Z,1.04
2022-11-26T00:23:50.249Z,1.05
2022-11-26T00:26:23.007Z,1.04
2022-11-26T00:28:56.209Z,1.05
2022-11-26T00:31:24.431Z,1.06
2022-11-26T00:33:51.648Z,1.09
2022-11-26T00:36:26.007Z,1.09
2022-11-26T00:39:15.726Z,1.10
2022-11-26T00:41:47.283Z,1.10
2022-11-26T00:44:23.183Z,1.12
2022-11-26T00:46:51.199Z,1.13
2022-11-26T00:49:19.017Z,1.15
2022-11-26T00:51:46.924Z,1.17
2022-11-26T00:54:17.309Z,1.20
2022-11-26T00:56:44.748Z,1.18
2022-11-26T00:59:14.919Z,1.20
2022-11-26T01:01:42.169Z,1.19
2022-11-26T01:04:09.538Z,1.22
2022-11-26T01:06:41.982Z,1.15
2022-11-26T01:09:17.554Z,1.20
2022-11-26T01:11:46.437Z,1.16
2022-11-26T01:14:18.798Z,1.20
2022-11-26T01:16:47.697Z,1.19
2022-11-26T01:19:16.621Z,1.15
2022-11-26T01:21:43.797Z,1.11
2022-11-26T01:24:11.080Z,1.13
2022-11-26T01:26:43.087Z,1.11
2022-11-26T01:29:18.008Z,1.13
2022-11-26T01:31:45.313Z,1.03
2022-11-26T01:34:12.803Z,1.15
2022-11-26T01:36:41.196Z,1.13
2022-11-26T01:39:22.790Z,1.10
2022-11-26T01:42:06.370Z,1.13
2022-11-26T01:44:36.988Z,1.14
2022-11-26T01:47:22.153Z,1.09
2022-11-26T01:50:26.880Z,1.14
2022-11-26T01:52:58.859Z,1.09
2022-11-26T01:55:40.196Z,1.08
2022-11-26T01:58:10.681Z,1.13
2022-11-26T02:00:37.760Z,1.12
2022-11-26T02:03:05.926Z,1.09
2022-11-26T02:05:42.821Z,1.05
2022-11-26T02:08:12.041Z,1.03
2022-11-26T02:10:39.210Z,1.03
2022-11-26T02:13:06.545Z,1.00
2022-11-26T02:15:46.682Z,1.02
2022-11-26T02:18:13.868Z,1.01
2022-11-26T02:20:47.009Z,1.03
2022-11-26T02:23:29.070Z,1.02
2022-11-26T02:26:19.232Z,1.02
2022-11-26T02:28:46.202Z,1.00
2022-11-26T02:31:20.824Z,1.01
2022-11-26T02:34:10.622Z,0.98
2022-11-26T02:36:47.262Z,1.00
2022-11-26T02:39:19.684Z,0.95
2022-11-26T02:41:49.727Z,0.99
2022-11-26T02:44:20.514Z,0.99
2022-11-26T02:46:51.982Z,1.00
2022-11-26T02:49:22.561Z,1.01
2022-11-26T02:51:54.394Z,0.99
2022-11-26T02:54:24.281Z,1.04
2022-11-26T02:56:52.877Z,1.01
2022-11-26T02:59:20.430Z,1.02
2022-11-26T03:01:57.954Z,0.97
2022-11-26T03:04:30.934Z,1.03
2022-11-26T03:07:02.441Z,1.01
2022-11-26T03:09:42.355Z,1.02
2022-11-26T03:12:09.632Z,1.02
2022-11-26T03:14:37.038Z,0.97
2022-11-26T03:17:04.351Z,0.96
2022-11-26T03:19:31.473Z,0.98
2022-11-26T03:21:58.598Z,0.84
2022-11-26T03:24:25.719Z,0.94
2022-11-26T03:26:52.981Z,0.89
2022-11-26T03:29:20.151Z,0.96
2022-11-26T03:31:47.355Z,1.00
2022-11-26T03:34:14.551Z,0.99
2022-11-26T03:36:41.709Z,1.02
2022-11-26T03:39:08.983Z,1.01
2022-11-26T03:41:36.103Z,1.01
2022-11-26T03:44:03.256Z,0.99
2022-11-26T03:46:30.472Z,1.01
2022-11-26T03:48:57.531Z,1.01
2022-11-26T03:51:24.711Z,1.01
2022-11-26T03:53:51.815Z,1.01
2022-11-26T03:56:19.023Z,0.91
2022-11-26T03:58:46.147Z,0.97
2022-11-26T04:01:13.868Z,0.99
2022-11-26T04:03:41.379Z,0.99
2022-11-26T04:06:08.862Z,0.98
2022-11-26T04:08:36.072Z,0.95
2022-11-26T04:11:03.227Z,0.93
2022-11-26T04:13:30.516Z,0.92
2022-11-26T04:15:57.592Z,0.88
2022-11-26T04:18:24.637Z,0.89
2022-11-26T04:20:53.466Z,0.93
2022-11-26T04:23:20.994Z,0.92
2022-11-26T04:25:48.157Z,0.87
2022-11-26T04:28:15.465Z,0.93
2022-11-26T04:30:43.832Z,0.94
2022-11-26T04:33:11.303Z,0.94
2022-11-26T04:35:38.885Z,0.91
2022-11-26T04:38:06.223Z,0.84
2022-11-26T04:40:33.477Z,0.85
2022-11-26T04:43:00.632Z,0.82
2022-11-26T04:45:27.853Z,0.74
2022-11-26T04:47:54.984Z,0.73
2022-11-26T04:50:22.120Z,0.73
2022-11-26T04:52:49.622Z,0.72
2022-11-26T04:55:18.032Z,0.69
2022-11-26T04:57:48.865Z,0.70
2022-11-26T05:00:18.047Z,0.67
2022-11-26T05:02:45.818Z,0.70
2022-11-26T05:05:13.639Z,0.71
2022-11-26T05:07:41.037Z,0.67
2022-11-26T05:10:09.043Z,0.68
2022-11-26T05:12:36.992Z,0.65
2022-11-26T05:15:05.592Z,0.61
2022-11-26T05:17:33.395Z,0.61
2022-11-26T05:20:00.463Z,0.58
2022-11-26T05:22:27.836Z,0.61
2022-11-26T05:24:54.952Z,0.57
2022-11-26T05:27:22.144Z,0.60
2022-11-26T05:29:49.340Z,0.59
2022-11-26T05:32:16.547Z,0.47
2022-11-26T05:34:43.666Z,0.60
2022-11-26T05:37:10.955Z,0.60
2022-11-26T05:39:38.267Z,0.57
2022-11-26T05:42:09.349Z,0.56
2022-11-26T05:44:37.814Z,0.49
2022-11-26T05:47:05.227Z,0.27
2022-11-26T05:49:32.916Z,0.50
2022-11-26T05:52:00.385Z,0.47
2022-11-26T05:54:27.493Z,0.37
2022-11-26T05:56:59.875Z,0.43
2022-11-26T05:59:28.352Z,0.38
2022-11-26T06:01:55.560Z,0.37
2022-11-26T06:04:23.345Z,0.29
2022-11-26T06:06:50.512Z,0.32
2022-11-26T06:09:17.663Z,0.32
2022-11-26T06:11:44.871Z,0.26
2022-11-26T06:14:11.983Z,0.25
2022-11-26T06:16:39.120Z,0.17
2022-11-26T06:19:06.221Z,0.16
2022-11-26T06:21:33.514Z,0.13
2022-11-26T06:24:00.672Z,0.12
2022-11-26T06:26:27.863Z,0.11
2022-11-26T06:28:55.005Z,0.10
2022-11-26T06:31:22.417Z,0.12
2022-11-26T06:33:54.511Z,0.13
2022-11-26T06:36:22.475Z,0.13
2022-11-26T06:38:49.908Z,0.15
2022-11-26T06:41:17.102Z,0.10
2022-11-26T06:43:44.385Z,-0.13
2022-11-26T06:46:12.173Z,0.08
2022-11-26T06:48:40.422Z,0.10
2022-11-26T06:51:13.274Z,0.07
2022-11-26T06:53:41.087Z,0.05
2022-11-26T06:56:17.807Z,0.05
2022-11-26T06:58:46.918Z,0.03
2022-11-26T07:01:20.096Z,0.06
2022-11-26T07:03:47.983Z,-0.01
2022-11-26T07:06:27.583Z,0.00
2022-11-26T07:08:57.166Z,-0.01
2022-11-26T07:11:25.672Z,0.02
2022-11-26T07:13:53.105Z,0.07
2022-11-26T07:16:21.024Z,0.11
2022-11-26T07:18:50.593Z,0.09
2022-11-26T07:21:18.911Z,0.11
2022-11-26T07:23:46.465Z,0.09
2022-11-26T07:26:15.585Z,0.10
2022-11-26T07:28:43.304Z,0.07
2022-11-26T07:31:16.409Z,0.09
2022-11-26T07:33:45.872Z,0.09
2022-11-26T07:36:17.685Z,0.13
2022-11-26T07:38:45.544Z,0.13
2022-11-26T07:41:16.350Z,0.17
2022-11-26T07:43:44.592Z,0.18
2022-11-26T07:46:15.103Z,0.17
2022-11-26T07:48:43.710Z,0.19
2022-11-26T07:51:29.905Z,0.21
2022-11-26T07:53:59.004Z,0.18
2022-11-26T07:56:26.631Z,0.14
2022-11-26T07:58:53.741Z,0.17
2022-11-26T08:01:23.296Z,0.16
2022-11-26T08:03:51.432Z,0.16
2022-11-26T08:06:22.035Z,0.14
2022-11-26T08:08:49.687Z,0.12
2022-11-26T08:11:22.795Z,0.12
2022-11-26T08:13:53.947Z,0.14
2022-11-26T08:16:21.320Z,0.11
2022-11-26T08:18:49.051Z,0.10
2022-11-26T08:21:16.237Z,0.09
2022-11-26T08:23:43.420Z,-0.12
2022-11-26T08:26:23.877Z,0.01
2022-11-26T08:28:55.676Z,-0.05
2022-11-26T08:31:25.061Z,-0.11
2022-11-26T08:33:52.488Z,-0.09
2022-11-26T08:36:19.743Z,-0.04
2022-11-26T08:38:46.901Z,0.04
2022-11-26T08:41:14.613Z,0.08
2022-11-26T08:46:29.388Z,0.10
2022-11-26T08:48:57.511Z,0.08
2022-11-26T08:51:25.675Z,0.03
2022-11-26T08:53:53.373Z,0.15
2022-11-26T08:56:20.706Z,-0.09
2022-11-26T08:58:49.253Z,0.08
2022-11-26T09:01:19.571Z,0.09
2022-11-26T09:03:51.316Z,0.06
2022-11-26T09:06:19.480Z,0.12
2022-11-26T09:09:06.054Z,0.18
2022-11-26T09:11:35.757Z,0.22
2022-11-26T09:14:03.344Z,0.12
2022-11-26T09:16:31.036Z,0.15
2022-11-26T09:19:01.336Z,0.20
2022-11-26T09:21:28.878Z,0.26
2022-11-26T09:23:56.190Z,0.34
2022-11-26T09:26:24.594Z,0.37
2022-11-26T09:28:52.461Z,0.39
2022-11-26T09:31:20.139Z,0.45
2022-11-26T09:33:47.429Z,0.41
2022-11-26T09:36:16.048Z,0.40
2022-11-26T09:38:43.778Z,0.37
2022-11-26T09:41:41.589Z,0.39
2022-11-26T09:44:23.511Z,0.39
2022-11-26T09:47:15.082Z,0.39
2022-11-26T09:50:17.552Z,0.42
2022-11-26T09:53:03.774Z,0.43
2022-11-26T09:55:33.648Z,0.41
2022-11-26T09:58:27.061Z,0.48
2022-11-26T10:00:57.889Z,0.51
2022-11-26T10:03:36.815Z,0.48
2022-11-26T10:06:24.219Z,0.47
2022-11-26T10:09:12.953Z,0.44
2022-11-26T10:12:01.905Z,0.46
2022-11-26T10:14:47.469Z,0.49
2022-11-26T10:17:42.823Z,0.53
2022-11-26T10:20:22.119Z,0.54
2022-11-26T10:23:12.442Z,0.55
2022-11-26T10:25:47.098Z,0.59
2022-11-26T10:28:32.143Z,0.61
2022-11-26T10:31:05.775Z,0.62
2022-11-26T10:33:44.071Z,0.62
2022-11-26T10:36:27.402Z,0.68
2022-11-26T10:38:56.759Z,0.68
2022-11-26T10:41:30.075Z,0.66
2022-11-26T10:44:17.791Z,0.64
2022-11-26T10:46:44.987Z,0.71
2022-11-26T10:49:32.761Z,0.73
2022-11-26T10:52:04.393Z,0.75
2022-11-26T10:54:35.460Z,0.79
2022-11-26T10:57:32.132Z,0.76
2022-11-26T10:59:59.707Z,0.75
2022-11-26T11:02:31.504Z,0.75
2022-11-26T11:05:03.080Z,0.72
2022-11-26T11:07:38.861Z,0.75
2022-11-26T11:10:08.747Z,0.79
2022-11-26T11:12:42.615Z,0.83
2022-11-26T11:15:25.310Z,0.84
2022-11-26T11:18:02.393Z,0.88
2022-11-26T11:20:51.342Z,0.92
2022-11-26T11:23:45.810Z,0.95
2022-11-26T11:26:23.894Z,0.97
2022-11-26T11:28:55.752Z,0.97
2022-11-26T11:31:27.374Z,0.96
2022-11-26T11:34:13.952Z,0.96
2022-11-26T11:36:41.101Z,0.94
2022-11-26T11:39:28.132Z,0.93
2022-11-26T11:41:55.437Z,0.88
2022-11-26T11:44:49.442Z,0.89
2022-11-26T11:47:43.267Z,0.85
2022-11-26T11:50:17.510Z,0.82
2022-11-26T11:53:10.789Z,0.73
2022-11-26T11:56:02.113Z,0.82
2022-11-26T11:58:54.345Z,0.79
2022-11-26T12:01:30.552Z,0.79
2022-11-26T12:04:16.440Z,0.76
2022-11-26T12:07:40.815Z,0.80
2022-11-26T12:10:21.201Z,0.85
2022-11-26T12:12:52.766Z,0.89
2022-11-26T12:15:25.248Z,0.94
2022-11-26T12:18:13.393Z,0.99
2022-11-26T12:20:48.069Z,1.01
2022-11-26T12:23:22.835Z,1.02
2022-11-26T12:26:13.147Z,1.02
2022-11-26T12:28:58.871Z,1.06
2022-11-26T12:31:38.173Z,1.05
2022-11-26T12:34:08.918Z,1.06
2022-11-26T12:37:16.853Z,1.07
2022-11-26T12:40:00.409Z,1.12
2022-11-26T12:42:42.338Z,1.16
2022-11-26T12:45:22.112Z,1.22
2022-11-26T12:48:29.741Z,1.24
2022-11-26T12:51:12.747Z,1.20
2022-11-26T12:53:42.972Z,1.26
2022-11-26T12:56:11.026Z,1.25
2022-11-26T12:58:43.958Z,1.26
2022-11-26T13:01:12.440Z,1.27
2022-11-26T13:03:41.621Z,1.28
2022-11-26T13:06:34.913Z,1.29
2022-11-26T13:09:16.216Z,1.30
2022-11-26T13:12:16.007Z,1.32
2022-11-26T13:14:59.211Z,1.30
2022-11-26T13:17:48.124Z,1.32
2022-11-26T13:20:59.815Z,1.33
2022-11-26T13:24:01.796Z,1.34
2022-11-26T13:27:15.506Z,1.35
2022-11-26T13:30:08.274Z,1.35
2022-11-26T13:32:48.153Z,1.31
2022-11-26T13:35:23.802Z,1.26
2022-11-26T13:38:09.272Z,1.27
2022-11-26T13:41:08.228Z,1.28
2022-11-26T13:44:16.624Z,1.29
2022-11-26T13:46:55.193Z,1.32
2022-11-26T13:49:51.222Z,1.32
2022-11-26T13:52:49.028Z,1.35
2022-11-26T13:55:39.629Z,1.38
2022-11-26T13:58:17.116Z,1.36
2022-11-26T14:00:44.646Z,1.37
2022-11-26T14:03:50.782Z,1.35
2022-11-26T14:06:18.079Z,1.39
2022-11-26T14:08:47.401Z,1.39
2022-11-26T14:11:45.357Z,1.39
2022-11-26T14:14:24.844Z,1.37
2022-11-26T14:17:01.336Z,1.36
2022-11-26T14:19:40.975Z,1.35
2022-11-26T14:22:23.029Z,1.35
2022-11-26T14:24:53.017Z,1.34
2022-11-26T14:27:22.508Z,1.32
2022-11-26T14:30:08.635Z,1.32
2022-11-26T14:32:51.903Z,1.33
2022-11-26T14:35:34.431Z,1.30
2022-11-26T14:38:05.991Z,1.28
2022-11-26T14:40:37.150Z,1.29
2022-11-26T14:43:20.785Z,1.24
2022-11-26T14:46:00.884Z,1.17
2022-11-26T14:48:30.141Z,1.20
2022-11-26T14:51:00.790Z,1.17
2022-11-26T14:53:34.173Z,1.18
2022-11-26T14:56:03.214Z,1.08
2022-11-26T14:58:36.735Z,1.15
2022-11-26T15:01:16.012Z,1.14
2022-11-26T15:03:53.261Z,1.14
2022-11-26T15:06:38.575Z,1.12
2022-11-26T15:09:16.670Z,1.12
2022-11-26T15:12:12.870Z,1.12
2022-11-26T15:14:56.043Z,1.10
2022-11-26T15:17:26.123Z,1.12
2022-11-26T15:19:55.504Z,1.13
2022-11-26T15:22:32.909Z,1.13
2022-11-26T15:25:00.348Z,1.16
2022-11-26T15:27:28.852Z,1.16
2022-11-26T15:29:56.041Z,1.13
2022-11-26T15:32:31.911Z,1.14
2022-11-26T15:35:03.712Z,1.09
2022-11-26T15:37:31.122Z,1.10
2022-11-26T15:40:24.391Z,1.12
2022-11-26T15:42:59.702Z,1.15
2022-11-26T15:45:47.341Z,1.15
2022-11-26T15:48:28.025Z,1.16
2022-11-26T15:51:00.365Z,1.18
2022-11-26T15:53:33.356Z,1.19
2022-11-26T15:56:02.149Z,1.16
2022-11-26T15:58:33.353Z,1.19
2022-11-26T16:01:03.062Z,1.18
2022-11-26T16:03:46.252Z,1.11
2022-11-26T16:06:32.272Z,1.06
2022-11-26T16:09:14.876Z,1.13
2022-11-26T16:11:58.082Z,1.13
2022-11-26T16:14:33.229Z,1.16
2022-11-26T16:17:08.384Z,1.17
2022-11-26T16:19:37.255Z,1.13
2022-11-26T16:22:06.283Z,1.14
2022-11-26T16:24:40.347Z,1.15
2022-11-26T16:27:22.346Z,1.16
2022-11-26T16:29:49.877Z,1.18
2022-11-26T16:32:18.487Z,1.20
2022-11-26T16:34:46.113Z,1.21
2022-11-26T16:37:28.944Z,1.20
2022-11-26T16:40:15.471Z,1.18
2022-11-26T16:42:42.760Z,1.18
2022-11-26T16:45:12.500Z,1.20
2022-11-26T16:47:49.812Z,1.21
2022-11-26T16:50:25.427Z,1.23
2022-11-26T16:52:54.103Z,1.22
2022-11-26T16:55:25.604Z,1.26
2022-11-26T16:57:56.657Z,1.28
2022-11-26T17:00:26.445Z,1.27
2022-11-26T17:02:54.189Z,1.26
2022-11-26T17:05:22.810Z,1.27
2022-11-26T17:07:54.234Z,1.32
2022-11-26T17:10:29.564Z,1.35
2022-11-26T17:12:57.775Z,1.36
2022-11-26T17:15:25.085Z,1.32
2022-11-26T17:17:54.871Z,1.35
2022-11-26T17:20:26.966Z,1.31
2022-11-26T17:22:54.321Z,1.25
2022-11-26T17:25:21.667Z,1.27
2022-11-26T17:27:49.123Z,1.22
2022-11-26T17:30:21.780Z,1.25
2022-11-26T17:32:49.201Z,1.11
2022-11-26T17:35:16.836Z,1.18
2022-11-26T17:37:44.270Z,1.14
2022-11-26T17:40:22.894Z,0.87
2022-11-26T17:42:50.639Z,1.16
2022-11-26T17:45:19.360Z,1.15
2022-11-26T17:47:47.007Z,1.13
2022-11-26T17:50:26.492Z,1.10
2022-11-26T17:52:55.062Z,1.14
2022-11-26T17:55:24.713Z,1.17
2022-11-26T17:57:52.390Z,1.23
2022-11-26T18:00:23.881Z,1.25
2022-11-26T18:02:52.373Z,1.22
2022-11-26T18:05:19.803Z,1.29
2022-11-26T18:07:47.274Z,1.25
2022-11-26T18:10:16.692Z,1.29
2022-11-26T18:12:45.022Z,1.32
2022-11-26T18:15:20.700Z,1.29
2022-11-26T18:17:51.147Z,1.28
2022-11-26T18:20:21.615Z,1.29
2022-11-26T18:22:54.004Z,1.28
2022-11-26T18:25:21.546Z,1.30
2022-11-26T18:27:48.995Z,1.27
2022-11-26T18:30:17.442Z,1.25
2022-11-26T18:32:44.752Z,1.29
2022-11-26T18:35:13.037Z,1.27
2022-11-26T18:37:41.049Z,1.33
2022-11-26T18:40:11.872Z,1.17
2022-11-26T18:42:39.172Z,1.35
2022-11-26T18:45:09.303Z,1.29
2022-11-26T18:47:36.721Z,1.27
2022-11-26T18:50:04.404Z,1.30
2022-11-26T18:52:31.789Z,1.32
2022-11-26T18:55:00.268Z,1.29
2022-11-26T18:57:28.035Z,1.33
2022-11-26T18:59:55.192Z,1.32
2022-11-26T19:02:22.527Z,1.36
2022-11-26T19:04:49.795Z,1.38
2022-11-26T19:07:17.193Z,1.39
2022-11-26T19:09:44.734Z,1.43
2022-11-26T19:12:13.132Z,1.45
2022-11-26T19:14:40.678Z,1.47
2022-11-26T19:17:08.695Z,1.47
2022-11-26T19:19:37.795Z,1.47
2022-11-26T19:22:05.355Z,1.46
2022-11-26T19:24:32.549Z,1.41
2022-11-26T19:26:59.924Z,1.46
2022-11-26T19:29:27.104Z,1.44
2022-11-26T19:31:54.392Z,1.46
2022-11-26T19:34:21.925Z,1.46
2022-11-26T19:36:49.336Z,1.51
2022-11-26T19:39:17.281Z,1.48
2022-11-26T19:41:44.685Z,1.47
2022-11-26T19:44:12.102Z,1.40
2022-11-26T19:46:41.548Z,1.44
2022-11-26T19:49:12.484Z,1.48
2022-11-26T19:51:40.574Z,1.46
2022-11-26T19:54:08.068Z,1.49
2022-11-26T19:56:35.773Z,1.48
2022-11-26T19:59:03.630Z,1.50
2022-11-26T20:01:33.209Z,1.50
2022-11-26T20:04:04.218Z,1.52
2022-11-26T20:06:32.826Z,1.52
2022-11-26T20:09:00.981Z,1.52
2022-11-26T20:11:29.139Z,1.57
2022-11-26T20:13:57.430Z,1.57
2022-11-26T20:16:27.293Z,1.55
2022-11-26T20:18:55.834Z,1.53
2022-11-26T20:21:26.352Z,1.53
2022-11-26T20:23:55.046Z,1.52
2022-11-26T20:26:31.203Z,1.49
2022-11-26T20:29:09.204Z,1.51
2022-11-26T20:31:44.852Z,1.47
2022-11-26T20:34:16.918Z,1.52
2022-11-26T20:36:45.033Z,1.46
2022-11-26T20:39:14.918Z,1.55
2022-11-26T20:41:42.468Z,1.53
2022-11-26T20:44:10.634Z,1.52
2022-11-26T20:46:38.017Z,1.49
2022-11-26T20:49:06.242Z,1.51
2022-11-26T20:51:34.127Z,1.53
2022-11-26T20:54:02.307Z,1.51
2022-11-26T20:56:29.632Z,1.51
2022-11-26T20:58:56.991Z,1.53
2022-11-26T21:01:28.990Z,1.55
2022-11-26T21:03:56.615Z,1.55
2022-11-26T21:06:29.686Z,1.58
2022-11-26T21:09:00.324Z,1.53
2022-11-26T21:11:27.509Z,1.59
2022-11-26T21:13:55.035Z,1.61
2022-11-26T21:16:23.575Z,1.62
2022-11-26T21:18:54.103Z,1.61
2022-11-26T21:21:22.094Z,1.60
2022-11-26T21:23:49.278Z,1.62
2022-11-26T21:26:18.971Z,1.49
2022-11-26T21:28:54.083Z,1.63
2022-11-26T21:31:22.379Z,1.65
2022-11-26T21:34:01.635Z,1.44
2022-11-26T21:36:30.793Z,1.65
2022-11-26T21:38:58.307Z,1.66
2022-11-26T21:41:25.917Z,1.67
2022-11-26T21:43:53.324Z,1.68
2022-11-26T21:46:23.800Z,1.70
2022-11-26T21:48:55.230Z,1.54
2022-11-26T21:51:24.389Z,1.71
2022-11-26T21:53:53.965Z,1.66
2022-11-26T21:56:23.697Z,1.68
2022-11-26T21:58:51.600Z,1.69
2022-11-26T22:01:21.637Z,1.68
2022-11-26T22:03:51.545Z,1.65
2022-11-26T22:06:20.350Z,1.67
2022-11-26T22:08:48.285Z,1.68
2022-11-26T22:11:17.106Z,1.69
2022-11-26T22:13:44.374Z,1.69
2022-11-26T22:16:13.969Z,1.69
2022-11-26T22:18:43.034Z,1.69
2022-11-26T22:21:16.425Z,1.67
2022-11-26T22:23:43.910Z,1.69
2022-11-26T22:26:11.245Z,1.75
2022-11-26T22:28:41.157Z,1.76
2022-11-26T22:31:27.238Z,1.72
2022-11-26T22:33:56.378Z,1.76
2022-11-26T22:36:24.163Z,1.78
2022-11-26T22:38:51.313Z,1.75
2022-11-26T22:41:18.990Z,1.83
2022-11-26T22:43:46.192Z,1.81
2022-11-26T22:46:16.303Z,1.84
2022-11-26T22:48:44.059Z,1.83
2022-11-26T22:51:11.411Z,1.84
2022-11-26T22:53:38.685Z,1.84
2022-11-26T22:56:06.509Z,1.81
2022-11-26T22:58:35.203Z,1.83
2022-11-26T23:01:06.078Z,1.83
2022-11-26T23:03:35.528Z,1.81
2022-11-26T23:06:08.644Z,1.85
2022-11-26T23:08:36.493Z,1.88
2022-11-26T23:11:35.052Z,1.90
2022-11-26T23:14:05.030Z,1.92
2022-11-26T23:16:32.303Z,1.93
2022-11-26T23:18:59.939Z,1.94
2022-11-26T23:21:36.034Z,1.93
2022-11-26T23:24:03.101Z,1.94
2022-11-26T23:26:32.896Z,1.94
2022-11-26T23:29:02.123Z,1.92
2022-11-26T23:31:35.795Z,1.93
2022-11-26T23:34:04.212Z,1.94
2022-11-26T23:36:32.363Z,1.96
2022-11-26T23:39:01.697Z,1.97
2022-11-26T23:41:29.410Z,1.98
2022-11-26T23:43:56.872Z,1.96
2022-11-26T23:46:30.140Z,1.95
2022-11-26T23:48:57.585Z,1.97
2022-11-26T23:51:30.541Z,1.98
2022-11-26T23:53:58.169Z,1.99
2022-11-26T23:56:30.801Z,1.99
2022-11-26T23:59:01.813Z,1.99
